sensor_id;sensor_type;location;lat;lon;timestamp;pressure;altitude;pressure_sealevel;temperature;humidity
7337;BME280;54510;42.016;23.098;2022-09-17T00:02:15;-21832.69;;;25.58;55.95
7337;BME280;54510;42.016;23.098;2022-09-17T00:04:41;-21826.44;;;25.34;56.03
7337;BME280;54510;42.016;23.098;2022-09-17T00:07:06;-21825.88;;;25.32;56.38
7337;BME280;54510;42.016;23.098;2022-09-17T00:09:32;-21825.06;;;25.29;55.88
7337;BME280;54510;42.016;23.098;2022-09-17T00:11:57;-21832.41;;;25.56;55.04
7337;BME280;54510;42.016;23.098;2022-09-17T00:14:22;-21832.41;;;25.56;54.87
7337;BME280;54510;42.016;23.098;2022-09-17T00:16:48;-21835.69;;;25.69;54.68
7337;BME280;54510;42.016;23.098;2022-09-17T00:19:19;-21835.13;;;25.67;54.76
7337;BME280;54510;42.016;23.098;2022-09-17T00:21:45;-21833.91;;;25.62;54.72
7337;BME280;54510;42.016;23.098;2022-09-17T00:24:13;-21832.41;;;25.56;54.69
7337;BME280;54510;42.016;23.098;2022-09-17T00:26:39;-21827.78;;;25.39;55.22
7337;BME280;54510;42.016;23.098;2022-09-17T00:29:04;-21828.59;;;25.42;55.23
7337;BME280;54510;42.016;23.098;2022-09-17T00:31:31;-21825.47;;;25.31;54.86
7337;BME280;54510;42.016;23.098;2022-09-17T00:33:58;-21830.22;;;25.48;54.96
7337;BME280;54510;42.016;23.098;2022-09-17T00:36:24;-21831.31;;;25.52;54.59
7337;BME280;54510;42.016;23.098;2022-09-17T00:38:50;-21832.53;;;25.57;54.55
7337;BME280;54510;42.016;23.098;2022-09-17T00:41:17;-21831.88;;;25.54;54.66
7337;BME280;54510;42.016;23.098;2022-09-17T00:43:52;-21829.00;;;25.44;55.22
7337;BME280;54510;42.016;23.098;2022-09-17T00:48:58;-21832.28;;;25.56;54.17
7337;BME280;54510;42.016;23.098;2022-09-17T00:51:32;-21832.00;;;25.55;53.84
7337;BME280;54510;42.016;23.098;2022-09-17T00:53:58;-21822.88;;;25.21;53.81
7337;BME280;54510;42.016;23.098;2022-09-17T00:56:26;-21824.66;;;25.28;54.30
7337;BME280;54510;42.016;23.098;2022-09-17T00:58:53;-21831.72;;;25.54;53.74
7337;BME280;54510;42.016;23.098;2022-09-17T01:01:19;-21825.59;;;25.31;53.61
7337;BME280;54510;42.016;23.098;2022-09-17T01:03:45;-21821.66;;;25.16;54.77
7337;BME280;54510;42.016;23.098;2022-09-17T01:12:45;-21819.63;;;25.09;54.77
7337;BME280;54510;42.016;23.098;2022-09-17T01:38:43;-21818.66;;;25.05;52.74
7337;BME280;54510;42.016;23.098;2022-09-17T01:41:42;-21824.25;;;25.26;52.07
7337;BME280;54510;42.016;23.098;2022-09-17T01:46:42;-21820.16;;;25.11;51.67
7337;BME280;54510;42.016;23.098;2022-09-17T01:49:09;-21817.16;;;25.00;51.93
7337;BME280;54510;42.016;23.098;2022-09-17T01:51:40;-21816.09;;;24.96;52.14
7337;BME280;54510;42.016;23.098;2022-09-17T01:54:12;-21813.91;;;24.88;51.93
7337;BME280;54510;42.016;23.098;2022-09-17T01:56:43;-21815.00;;;24.92;51.48
7337;BME280;54510;42.016;23.098;2022-09-17T01:59:20;-21816.09;;;24.96;51.07
7337;BME280;54510;42.016;23.098;2022-09-17T02:01:52;-21822.06;;;25.18;50.98
7337;BME280;54510;42.016;23.098;2022-09-17T02:04:27;-21821.13;;;25.14;50.25
7337;BME280;54510;42.016;23.098;2022-09-17T02:07:02;-21814.44;;;24.90;50.87
7337;BME280;54510;42.016;23.098;2022-09-17T02:12:57;-21824.53;;;25.27;49.79
7337;BME280;54510;42.016;23.098;2022-09-17T02:15:33;-21824.25;;;25.26;49.96
7337;BME280;54510;42.016;23.098;2022-09-17T02:18:25;-21822.06;;;25.18;50.81
7337;BME280;54510;42.016;23.098;2022-09-17T02:21:01;-21822.88;;;25.21;50.61
7337;BME280;54510;42.016;23.098;2022-09-17T02:23:34;-21820.56;;;25.12;51.05
7337;BME280;54510;42.016;23.098;2022-09-17T02:26:05;-21824.53;;;25.27;50.73
7337;BME280;54510;42.016;23.098;2022-09-17T02:28:47;-21816.75;;;24.98;50.76
7337;BME280;54510;42.016;23.098;2022-09-17T02:31:14;-21824.53;;;25.27;50.47
7337;BME280;54510;42.016;23.098;2022-09-17T02:33:41;-21822.63;;;25.20;50.90
7337;BME280;54510;42.016;23.098;2022-09-17T02:36:09;-21818.81;;;25.06;50.57
7337;BME280;54510;42.016;23.098;2022-09-17T02:38:34;-21827.09;;;25.37;50.61
7337;BME280;54510;42.016;23.098;2022-09-17T02:41:24;-21825.06;;;25.29;51.05
7337;BME280;54510;42.016;23.098;2022-09-17T02:44:25;-21817.56;;;25.01;51.82
7337;BME280;54510;42.016;23.098;2022-09-17T02:50:01;-21821.53;;;25.16;52.04
7337;BME280;54510;42.016;23.098;2022-09-17T02:52:54;-21822.47;;;25.19;51.80
7337;BME280;54510;42.016;23.098;2022-09-17T02:55:32;-21818.66;;;25.05;51.96
7337;BME280;54510;42.016;23.098;2022-09-17T03:00:41;-21822.06;;;25.18;52.62
7337;BME280;54510;42.016;23.098;2022-09-17T03:03:25;-21825.34;;;25.30;52.58
7337;BME280;54510;42.016;23.098;2022-09-17T03:05:53;-21818.53;;;25.05;52.76
7337;BME280;54510;42.016;23.098;2022-09-17T03:08:27;-21822.34;;;25.19;53.21
7337;BME280;54510;42.016;23.098;2022-09-17T03:10:53;-21822.88;;;25.21;53.17
7337;BME280;54510;42.016;23.098;2022-09-17T03:13:18;-21823.84;;;25.25;53.24
7337;BME280;54510;42.016;23.098;2022-09-17T03:15:44;-21823.97;;;25.25;53.19
7337;BME280;54510;42.016;23.098;2022-09-17T03:18:09;-21823.72;;;25.24;53.32
7337;BME280;54510;42.016;23.098;2022-09-17T03:20:34;-21823.16;;;25.22;53.41
7337;BME280;54510;42.016;23.098;2022-09-17T03:23:00;-21823.28;;;25.23;53.61
7337;BME280;54510;42.016;23.098;2022-09-17T03:25:25;-21822.88;;;25.21;53.70
7337;BME280;54510;42.016;23.098;2022-09-17T03:27:51;-21825.59;;;25.31;53.41
7337;BME280;54510;42.016;23.098;2022-09-17T03:30:17;-21827.66;;;25.39;53.06
7337;BME280;54510;42.016;23.098;2022-09-17T03:32:42;-21823.56;;;25.24;53.28
7337;BME280;54510;42.016;23.098;2022-09-17T03:35:08;-21824.38;;;25.27;52.79
7337;BME280;54510;42.016;23.098;2022-09-17T03:37:33;-21827.25;;;25.37;52.23
7337;BME280;54510;42.016;23.098;2022-09-17T03:39:59;-21830.38;;;25.49;51.74
7337;BME280;54510;42.016;23.098;2022-09-17T03:42:24;-21834.88;;;25.66;51.44
7337;BME280;54510;42.016;23.098;2022-09-17T03:44:50;-21832.41;;;25.56;51.12
7337;BME280;54510;42.016;23.098;2022-09-17T03:47:15;-21832.13;;;25.55;50.74
7337;BME280;54510;42.016;23.098;2022-09-17T03:49:41;-21834.59;;;25.65;50.62
7337;BME280;54510;42.016;23.098;2022-09-17T03:52:06;-21830.78;;;25.50;51.16
7337;BME280;54510;42.016;23.098;2022-09-17T03:54:32;-21837.72;;;25.76;50.32
7337;BME280;54510;42.016;23.098;2022-09-17T03:56:57;-21837.03;;;25.74;50.29
7337;BME280;54510;42.016;23.098;2022-09-17T03:59:23;-21835.13;;;25.67;50.31
7337;BME280;54510;42.016;23.098;2022-09-17T04:01:48;-21837.44;;;25.75;50.35
7337;BME280;54510;42.016;23.098;2022-09-17T04:04:13;-21837.59;;;25.76;50.38
7337;BME280;54510;42.016;23.098;2022-09-17T04:06:39;-21839.75;;;25.84;50.81
7337;BME280;54510;42.016;23.098;2022-09-17T04:09:04;-21839.50;;;25.83;50.90
7337;BME280;54510;42.016;23.098;2022-09-17T04:11:30;-21834.31;;;25.64;51.48
7337;BME280;54510;42.016;23.098;2022-09-17T04:13:55;-21830.50;;;25.49;52.26
7337;BME280;54510;42.016;23.098;2022-09-17T04:16:21;-21834.31;;;25.64;52.58
7337;BME280;54510;42.016;23.098;2022-09-17T04:18:46;-21836.22;;;25.71;52.47
7337;BME280;54510;42.016;23.098;2022-09-17T04:21:12;-21835.81;;;25.69;52.22
7337;BME280;54510;42.016;23.098;2022-09-17T04:23:37;-21834.88;;;25.66;52.37
7337;BME280;54510;42.016;23.098;2022-09-17T04:26:02;-21829.97;;;25.47;52.68
7337;BME280;54510;42.016;23.098;2022-09-17T04:28:28;-21829.69;;;25.46;53.06
7337;BME280;54510;42.016;23.098;2022-09-17T04:30:54;-21834.31;;;25.64;52.80
7337;BME280;54510;42.016;23.098;2022-09-17T04:33:20;-21829.41;;;25.45;53.33
7337;BME280;54510;42.016;23.098;2022-09-17T04:35:45;-21830.50;;;25.49;52.77
7337;BME280;54510;42.016;23.098;2022-09-17T04:38:11;-21832.00;;;25.55;52.80
7337;BME280;54510;42.016;23.098;2022-09-17T04:40:42;-21823.56;;;25.24;54.07
7337;BME280;54510;42.016;23.098;2022-09-17T04:43:07;-21817.16;;;25.00;55.58
7337;BME280;54510;42.016;23.098;2022-09-17T04:45:35;-21821.94;;;25.17;54.94
7337;BME280;54510;42.016;23.098;2022-09-17T04:48:01;-21831.06;;;25.51;54.35
7337;BME280;54510;42.016;23.098;2022-09-17T04:50:26;-21832.97;;;25.59;54.92
7337;BME280;54510;42.016;23.098;2022-09-17T04:52:52;-21824.53;;;25.27;54.50
7337;BME280;54510;42.016;23.098;2022-09-17T04:55:17;-21824.38;;;25.27;55.74
7337;BME280;54510;42.016;23.098;2022-09-17T04:57:51;-21830.50;;;25.49;55.83
7337;BME280;54510;42.016;23.098;2022-09-17T05:00:18;-21824.53;;;25.27;56.31
7337;BME280;54510;42.016;23.098;2022-09-17T05:02:46;-21831.31;;;25.52;56.14
7337;BME280;54510;42.016;23.098;2022-09-17T05:05:12;-21840.16;;;25.85;55.28
7337;BME280;54510;42.016;23.098;2022-09-17T05:07:38;-21843.69;;;25.99;55.27
7337;BME280;54510;42.016;23.098;2022-09-17T05:10:04;-21830.78;;;25.50;57.21
7337;BME280;54510;42.016;23.098;2022-09-17T05:12:30;-21833.78;;;25.62;58.50
7337;BME280;54510;42.016;23.098;2022-09-17T05:14:56;-21834.88;;;25.66;59.58
7337;BME280;54510;42.016;23.098;2022-09-17T05:17:21;-21844.38;;;26.01;59.17
7337;BME280;54510;42.016;23.098;2022-09-17T05:19:46;-21848.31;;;26.16;59.41
7337;BME280;54510;42.016;23.098;2022-09-17T05:22:12;-21848.72;;;26.17;59.07
7337;BME280;54510;42.016;23.098;2022-09-17T05:24:37;-21853.09;;;26.33;58.29
7337;BME280;54510;42.016;23.098;2022-09-17T05:27:07;-21861.66;;;26.65;57.82
7337;BME280;54510;42.016;23.098;2022-09-17T05:29:33;-21854.59;;;26.39;58.81
7337;BME280;54510;42.016;23.098;2022-09-17T05:31:58;-21840.56;;;25.87;59.83
7337;BME280;54510;42.016;23.098;2022-09-17T05:34:23;-21852.53;;;26.31;59.70
7337;BME280;54510;42.016;23.098;2022-09-17T05:36:49;-21862.31;;;26.68;58.66
7337;BME280;54510;42.016;23.098;2022-09-17T05:39:15;-21851.19;;;26.26;59.87
7337;BME280;54510;42.016;23.098;2022-09-17T05:41:40;-21853.75;;;26.36;59.74
7337;BME280;54510;42.016;23.098;2022-09-17T05:44:05;-21854.44;;;26.39;59.59
7337;BME280;54510;42.016;23.098;2022-09-17T05:46:31;-21854.16;;;26.38;59.08
7337;BME280;54510;42.016;23.098;2022-09-17T05:48:56;-21865.03;;;26.78;58.96
7337;BME280;54510;42.016;23.098;2022-09-17T05:51:22;-21866.94;;;26.85;58.64
7337;BME280;54510;42.016;23.098;2022-09-17T05:53:48;-21869.13;;;26.93;58.39
7337;BME280;54510;42.016;23.098;2022-09-17T05:56:13;-21868.44;;;26.91;58.28
7337;BME280;54510;42.016;23.098;2022-09-17T05:58:38;-21863.81;;;26.73;58.98
7337;BME280;54510;42.016;23.098;2022-09-17T06:01:04;-21865.84;;;26.81;59.41
7337;BME280;54510;42.016;23.098;2022-09-17T06:03:29;-21865.44;;;26.80;59.42
7337;BME280;54510;42.016;23.098;2022-09-17T06:05:59;-21866.41;;;26.83;58.00
7337;BME280;54510;42.016;23.098;2022-09-17T06:08:26;-21869.25;;;26.94;57.33
7337;BME280;54510;42.016;23.098;2022-09-17T06:10:51;-21865.31;;;26.79;57.91
7337;BME280;54510;42.016;23.098;2022-09-17T06:13:17;-21869.13;;;26.93;57.68
7337;BME280;54510;42.016;23.098;2022-09-17T06:15:52;-21876.16;;;27.20;56.82
7337;BME280;54510;42.016;23.098;2022-09-17T06:18:19;-21866.41;;;26.83;57.68
7337;BME280;54510;42.016;23.098;2022-09-17T06:21:01;-21868.03;;;26.89;57.71
7337;BME280;54510;42.016;23.098;2022-09-17T06:23:30;-21876.84;;;27.22;56.66
7337;BME280;54510;42.016;23.098;2022-09-17T06:25:59;-21872.91;;;27.07;56.11
7337;BME280;54510;42.016;23.098;2022-09-17T06:28:26;-21855.25;;;26.42;58.57
7337;BME280;54510;42.016;23.098;2022-09-17T06:30:52;-21857.16;;;26.49;58.52
7337;BME280;54510;42.016;23.098;2022-09-17T06:33:19;-21865.84;;;26.81;57.92
7337;BME280;54510;42.016;23.098;2022-09-17T06:35:45;-21872.38;;;27.05;57.11
7337;BME280;54510;42.016;23.098;2022-09-17T06:38:10;-21870.34;;;26.98;56.49
7337;BME280;54510;42.016;23.098;2022-09-17T06:40:36;-21874.13;;;27.12;56.08
7337;BME280;54510;42.016;23.098;2022-09-17T06:43:02;-21879.16;;;27.31;55.52
7337;BME280;54510;42.016;23.098;2022-09-17T06:45:28;-21882.94;;;27.45;55.61
7337;BME280;54510;42.016;23.098;2022-09-17T06:47:53;-21880.66;;;27.36;55.81
7337;BME280;54510;42.016;23.098;2022-09-17T06:50:19;-21886.75;;;27.59;56.10
7337;BME280;54510;42.016;23.098;2022-09-17T06:52:52;-21892.44;;;27.80;55.18
7337;BME280;54510;42.016;23.098;2022-09-17T06:55:18;-21896.09;;;27.94;54.75
7337;BME280;54510;42.016;23.098;2022-09-17T06:57:45;-21904.38;;;28.25;54.00
7337;BME280;54510;42.016;23.098;2022-09-17T07:00:12;-21901.41;;;28.14;54.61
7337;BME280;54510;42.016;23.098;2022-09-17T07:02:37;-21903.69;;;28.22;55.31
7337;BME280;54510;42.016;23.098;2022-09-17T07:05:03;-21895.56;;;27.92;55.44
7337;BME280;54510;42.016;23.098;2022-09-17T07:07:29;-21896.78;;;27.97;55.14
7337;BME280;54510;42.016;23.098;2022-09-17T07:09:55;-21899.22;;;28.06;55.14
7337;BME280;54510;42.016;23.098;2022-09-17T07:12:20;-21903.03;;;28.20;55.18
7337;BME280;54510;42.016;23.098;2022-09-17T07:14:46;-21912.38;;;28.55;53.95
7337;BME280;54510;42.016;23.098;2022-09-17T07:17:12;-21913.84;;;28.60;54.12
7337;BME280;54510;42.016;23.098;2022-09-17T07:19:38;-21923.88;;;28.98;53.51
7337;BME280;54510;42.016;23.098;2022-09-17T07:22:04;-21930.50;;;29.23;52.42
7337;BME280;54510;42.016;23.098;2022-09-17T07:24:29;-21932.25;;;29.29;52.21
7337;BME280;54510;42.016;23.098;2022-09-17T07:26:54;-21945.78;;;29.80;51.19
7337;BME280;54510;42.016;23.098;2022-09-17T07:29:20;-21946.88;;;29.84;50.96
7337;BME280;54510;42.016;23.098;2022-09-17T07:31:47;-21949.44;;;29.94;50.88
7337;BME280;54510;42.016;23.098;2022-09-17T07:34:13;-21947.53;;;29.87;49.68
7337;BME280;54510;42.016;23.098;2022-09-17T07:36:39;-21955.94;;;30.18;49.58
7337;BME280;54510;42.016;23.098;2022-09-17T07:39:04;-21964.44;;;30.50;48.85
7337;BME280;54510;42.016;23.098;2022-09-17T07:41:31;-21973.47;;;30.84;48.70
7337;BME280;54510;42.016;23.098;2022-09-17T07:43:56;-21977.94;;;31.00;47.71
7337;BME280;54510;42.016;23.098;2022-09-17T07:46:22;-21983.72;;;31.22;47.53
7337;BME280;54510;42.016;23.098;2022-09-17T07:48:48;-21986.16;;;31.31;48.02
7337;BME280;54510;42.016;23.098;2022-09-17T07:51:19;-21983.31;;;31.21;47.96
7337;BME280;54510;42.016;23.098;2022-09-17T07:53:46;-21983.72;;;31.22;47.29
7337;BME280;54510;42.016;23.098;2022-09-17T07:56:11;-21969.16;;;30.68;49.27
7337;BME280;54510;42.016;23.098;2022-09-17T07:58:37;-21969.03;;;30.67;48.50
7337;BME280;54510;42.016;23.098;2022-09-17T08:01:04;-21960.53;;;30.35;49.60
7337;BME280;54510;42.016;23.098;2022-09-17T08:03:31;-21967.00;;;30.59;48.66
7337;BME280;54510;42.016;23.098;2022-09-17T08:06:11;-21961.88;;;30.40;48.87
7337;BME280;54510;42.016;23.098;2022-09-17T08:08:37;-21958.34;;;30.27;49.72
7337;BME280;54510;42.016;23.098;2022-09-17T08:11:06;-21952.16;;;30.04;49.73
7337;BME280;54510;42.016;23.098;2022-09-17T08:13:32;-21961.47;;;30.39;49.46
7337;BME280;54510;42.016;23.098;2022-09-17T08:15:59;-21965.66;;;30.54;48.25
7337;BME280;54510;42.016;23.098;2022-09-17T08:18:25;-21970.66;;;30.73;48.19
7337;BME280;54510;42.016;23.098;2022-09-17T08:20:51;-21971.72;;;30.77;48.45
7337;BME280;54510;42.016;23.098;2022-09-17T08:23:17;-21968.63;;;30.66;46.99
7337;BME280;54510;42.016;23.098;2022-09-17T08:25:42;-21972.25;;;30.79;46.21
7337;BME280;54510;42.016;23.098;2022-09-17T08:28:07;-21974.41;;;30.87;45.83
7337;BME280;54510;42.016;23.098;2022-09-17T08:30:33;-21974.16;;;30.86;45.39
7337;BME280;54510;42.016;23.098;2022-09-17T08:32:58;-21974.81;;;30.89;45.89
7337;BME280;54510;42.016;23.098;2022-09-17T08:35:24;-21974.56;;;30.88;45.36
7337;BME280;54510;42.016;23.098;2022-09-17T08:37:50;-21975.91;;;30.93;44.61
7337;BME280;54510;42.016;23.098;2022-09-17T08:40:20;-21977.38;;;30.98;44.60
7337;BME280;54510;42.016;23.098;2022-09-17T08:42:56;-21975.22;;;30.90;45.29
7337;BME280;54510;42.016;23.098;2022-09-17T08:45:26;-21958.34;;;30.27;46.98
7337;BME280;54510;42.016;23.098;2022-09-17T08:47:55;-21953.63;;;30.09;47.89
7337;BME280;54510;42.016;23.098;2022-09-17T08:55:46;-21949.97;;;29.96;50.25
7337;BME280;54510;42.016;23.098;2022-09-17T09:03:47;-21952.97;;;30.07;49.08
7337;BME280;54510;42.016;23.098;2022-09-17T09:06:18;-21950.66;;;29.98;48.82
7337;BME280;54510;42.016;23.098;2022-09-17T09:08:59;-21944.44;;;29.75;48.61
7337;BME280;54510;42.016;23.098;2022-09-17T09:11:29;-21954.03;;;30.11;48.80
7337;BME280;54510;42.016;23.098;2022-09-17T09:16:48;-21951.59;;;30.02;50.62
7337;BME280;54510;42.016;23.098;2022-09-17T09:27:17;-21922.53;;;28.93;55.47
7337;BME280;54510;42.016;23.098;2022-09-17T09:30:05;-21860.69;;;26.62;65.67
7337;BME280;54510;42.016;23.098;2022-09-17T09:35:28;-21821.53;;;25.16;71.79
7337;BME280;54510;42.016;23.098;2022-09-17T09:38:00;-21821.25;;;25.15;71.62
7337;BME280;54510;42.016;23.098;2022-09-17T09:48:36;-21851.84;;;26.29;66.62
7337;BME280;54510;42.016;23.098;2022-09-17T09:54:02;-21859.34;;;26.57;64.59
7337;BME280;54510;42.016;23.098;2022-09-17T09:56:42;-21855.00;;;26.41;65.87
7337;BME280;54510;42.016;23.098;2022-09-17T09:59:13;-21852.00;;;26.29;68.30
7337;BME280;54510;42.016;23.098;2022-09-17T10:01:40;-21861.50;;;26.65;68.58
7337;BME280;54510;42.016;23.098;2022-09-17T10:04:22;-21867.22;;;26.86;65.91
7337;BME280;54510;42.016;23.098;2022-09-17T10:06:51;-21868.97;;;26.93;65.32
7337;BME280;54510;42.016;23.098;2022-09-17T10:09:19;-21840.56;;;25.87;66.45
7337;BME280;54510;42.016;23.098;2022-09-17T10:17:21;-21825.19;;;25.30;68.19
7337;BME280;54510;42.016;23.098;2022-09-17T10:20:13;-21830.91;;;25.51;66.06
7337;BME280;54510;42.016;23.098;2022-09-17T10:22:46;-21851.19;;;26.26;65.08
7337;BME280;54510;42.016;23.098;2022-09-17T10:27:47;-21853.34;;;26.34;63.28
7337;BME280;54510;42.016;23.098;2022-09-17T10:30:15;-21857.03;;;26.48;63.54
7337;BME280;54510;42.016;23.098;2022-09-17T10:32:41;-21843.69;;;25.99;62.65
7337;BME280;54510;42.016;23.098;2022-09-17T10:37:47;-21853.75;;;26.36;62.49
7337;BME280;54510;42.016;23.098;2022-09-17T10:42:48;-21862.19;;;26.67;61.49
7337;BME280;54510;42.016;23.098;2022-09-17T10:45:25;-21867.06;;;26.86;61.10
7337;BME280;54510;42.016;23.098;2022-09-17T10:47:53;-21863.41;;;26.72;60.88
7337;BME280;54510;42.016;23.098;2022-09-17T10:50:28;-21875.22;;;27.16;60.09
7337;BME280;54510;42.016;23.098;2022-09-17T10:52:56;-21874.53;;;27.13;58.22
7337;BME280;54510;42.016;23.098;2022-09-17T11:01:14;-21886.88;;;27.60;57.60
7337;BME280;54510;42.016;23.098;2022-09-17T11:04:09;-21883.34;;;27.46;57.95
7337;BME280;54510;42.016;23.098;2022-09-17T11:25:54;-21903.16;;;28.20;58.11
7337;BME280;54510;42.016;23.098;2022-09-17T11:31:20;-21894.88;;;27.89;56.49
7337;BME280;54510;42.016;23.098;2022-09-17T11:37:04;-21897.75;;;28.00;57.70
7337;BME280;54510;42.016;23.098;2022-09-17T11:39:42;-21895.44;;;27.91;58.10
7337;BME280;54510;42.016;23.098;2022-09-17T11:42:15;-21898.00;;;28.01;57.48
7337;BME280;54510;42.016;23.098;2022-09-17T11:44:56;-21899.50;;;28.07;58.86
7337;BME280;54510;42.016;23.098;2022-09-17T11:47:35;-21903.97;;;28.23;58.92
7337;BME280;54510;42.016;23.098;2022-09-17T11:50:24;-21904.38;;;28.25;57.99
7337;BME280;54510;42.016;23.098;2022-09-17T11:53:27;-21906.81;;;28.34;58.38
7337;BME280;54510;42.016;23.098;2022-09-17T11:56:04;-21912.63;;;28.56;57.99
7337;BME280;54510;42.016;23.098;2022-09-17T11:58:43;-21910.59;;;28.48;59.92
7337;BME280;54510;42.016;23.098;2022-09-17T12:06:48;-21924.69;;;29.01;57.22
7337;BME280;54510;42.016;23.098;2022-09-17T12:09:19;-21925.22;;;29.03;56.46
7337;BME280;54510;42.016;23.098;2022-09-17T12:12:09;-21915.22;;;28.65;58.22
7337;BME280;54510;42.016;23.098;2022-09-17T12:14:49;-21919.81;;;28.83;56.36
7337;BME280;54510;42.016;23.098;2022-09-17T12:17:39;-21921.44;;;28.89;56.13
7337;BME280;54510;42.016;23.098;2022-09-17T12:20:17;-21929.03;;;29.17;56.61
7337;BME280;54510;42.016;23.098;2022-09-17T12:22:47;-21928.22;;;29.14;54.90
7337;BME280;54510;42.016;23.098;2022-09-17T12:25:14;-21932.81;;;29.31;54.91
7337;BME280;54510;42.016;23.098;2022-09-17T12:30:16;-21913.06;;;28.57;55.97
7337;BME280;54510;42.016;23.098;2022-09-17T12:51:36;-21936.06;;;29.43;52.41
7337;BME280;54510;42.016;23.098;2022-09-17T13:00:01;-21938.50;;;29.53;53.73
7337;BME280;54510;42.016;23.098;2022-09-17T13:02:31;-21932.00;;;29.28;54.08
7337;BME280;54510;42.016;23.098;2022-09-17T13:14:18;-21927.13;;;29.10;52.93
7337;BME280;54510;42.016;23.098;2022-09-17T13:16:22;-21908.84;;;28.42;56.02
7337;BME280;54510;42.016;23.098;2022-09-17T13:21:50;-21923.19;;;28.95;56.05
7337;BME280;54510;42.016;23.098;2022-09-17T13:24:19;-21921.72;;;28.90;55.33
7337;BME280;54510;42.016;23.098;2022-09-17T13:26:47;-21918.06;;;28.76;55.37
7337;BME280;54510;42.016;23.098;2022-09-17T13:32:49;-21906.28;;;28.32;55.18
7337;BME280;54510;42.016;23.098;2022-09-17T13:38:01;-21893.66;;;27.85;57.31
7337;BME280;54510;42.016;23.098;2022-09-17T13:40:33;-21887.03;;;27.60;58.20
7337;BME280;54510;42.016;23.098;2022-09-17T13:45:27;-21875.34;;;27.17;61.68
7337;BME280;54510;42.016;23.098;2022-09-17T13:48:11;-21886.47;;;27.58;61.87
7337;BME280;54510;42.016;23.098;2022-09-17T13:50:42;-21880.78;;;27.37;63.06
7337;BME280;54510;42.016;23.098;2022-09-17T13:55:53;-21871.44;;;27.02;63.93
7337;BME280;54510;42.016;23.098;2022-09-17T14:00:59;-21846.81;;;26.10;65.73
7337;BME280;54510;42.016;23.098;2022-09-17T14:08:28;-21855.53;;;26.43;63.16
7337;BME280;54510;42.016;23.098;2022-09-17T14:11:00;-21849.00;;;26.18;65.47
7337;BME280;54510;42.016;23.098;2022-09-17T14:13:38;-21848.88;;;26.18;65.75
7337;BME280;54510;42.016;23.098;2022-09-17T14:24:23;-21839.91;;;25.84;65.31
7337;BME280;54510;42.016;23.098;2022-09-17T14:32:13;-21836.63;;;25.72;63.03
7337;BME280;54510;42.016;23.098;2022-09-17T14:34:40;-21842.22;;;25.93;63.45
7337;BME280;54510;42.016;23.098;2022-09-17T14:37:11;-21849.94;;;26.22;61.26
7337;BME280;54510;42.016;23.098;2022-09-17T14:39:38;-21843.03;;;25.96;60.89
7337;BME280;54510;42.016;23.098;2022-09-17T14:42:09;-21855.41;;;26.42;60.93
7337;BME280;54510;42.016;23.098;2022-09-17T14:44:47;-21825.59;;;25.31;63.12
7337;BME280;54510;42.016;23.098;2022-09-17T14:47:16;-21824.25;;;25.26;62.64
7337;BME280;54510;42.016;23.098;2022-09-17T14:49:43;-21842.75;;;25.95;62.07
7337;BME280;54510;42.016;23.098;2022-09-17T14:52:28;-21848.88;;;26.18;61.28
7337;BME280;54510;42.016;23.098;2022-09-17T14:55:24;-21848.72;;;26.17;59.53
7337;BME280;54510;42.016;23.098;2022-09-17T14:57:58;-21842.34;;;25.93;61.05
7337;BME280;54510;42.016;23.098;2022-09-17T15:00:36;-21832.69;;;25.58;59.97
7337;BME280;54510;42.016;23.098;2022-09-17T15:03:02;-21841.81;;;25.91;59.56
7337;BME280;54510;42.016;23.098;2022-09-17T15:05:33;-21839.22;;;25.82;59.25
7337;BME280;54510;42.016;23.098;2022-09-17T15:10:45;-21824.66;;;25.28;61.56
7337;BME280;54510;42.016;23.098;2022-09-17T15:13:14;-21817.16;;;25.00;60.83
7337;BME280;54510;42.016;23.098;2022-09-17T15:15:50;-21841.66;;;25.91;59.37
7337;BME280;54510;42.016;23.098;2022-09-17T15:18:17;-21848.88;;;26.18;58.47
7337;BME280;54510;42.016;23.098;2022-09-17T15:20:45;-21849.53;;;26.20;58.02
7337;BME280;54510;42.016;23.098;2022-09-17T15:23:19;-21854.44;;;26.39;57.20
7337;BME280;54510;42.016;23.098;2022-09-17T15:25:49;-21846.69;;;26.10;57.77
7337;BME280;54510;42.016;23.098;2022-09-17T15:30:54;-21842.75;;;25.95;57.25
7337;BME280;54510;42.016;23.098;2022-09-17T15:33:20;-21845.75;;;26.06;57.77
7337;BME280;54510;42.016;23.098;2022-09-17T15:36:07;-21855.81;;;26.44;58.38
7337;BME280;54510;42.016;23.098;2022-09-17T15:38:35;-21862.59;;;26.69;57.94
7337;BME280;54510;42.016;23.098;2022-09-17T15:44:04;-21854.59;;;26.39;60.71
7337;BME280;54510;42.016;23.098;2022-09-17T15:46:31;-21858.94;;;26.55;59.31
7337;BME280;54510;42.016;23.098;2022-09-17T15:48:58;-21856.06;;;26.45;61.33
7337;BME280;54510;42.016;23.098;2022-09-17T15:51:27;-21857.16;;;26.49;61.79
7337;BME280;54510;42.016;23.098;2022-09-17T15:53:56;-21848.47;;;26.16;62.48
7337;BME280;54510;42.016;23.098;2022-09-17T15:56:42;-21849.69;;;26.21;62.13
7337;BME280;54510;42.016;23.098;2022-09-17T15:59:21;-21852.28;;;26.30;62.09
7337;BME280;54510;42.016;23.098;2022-09-17T16:01:52;-21843.16;;;25.96;63.48
7337;BME280;54510;42.016;23.098;2022-09-17T16:04:21;-21836.22;;;25.71;64.86
7337;BME280;54510;42.016;23.098;2022-09-17T16:12:05;-21831.72;;;25.54;65.65
7337;BME280;54510;42.016;23.098;2022-09-17T16:14:31;-21820.56;;;25.12;66.70
7337;BME280;54510;42.016;23.098;2022-09-17T16:16:57;-21824.78;;;25.28;66.47
7337;BME280;54510;42.016;23.098;2022-09-17T16:19:24;-21826.00;;;25.33;64.83
7337;BME280;54510;42.016;23.098;2022-09-17T16:21:49;-21829.16;;;25.44;65.40
7337;BME280;54510;42.016;23.098;2022-09-17T16:24:15;-21818.81;;;25.06;65.08
7337;BME280;54510;42.016;23.098;2022-09-17T16:26:40;-21814.03;;;24.88;65.67
7337;BME280;54510;42.016;23.098;2022-09-17T16:29:12;-21831.88;;;25.54;63.70
7337;BME280;54510;42.016;23.098;2022-09-17T16:31:38;-21843.03;;;25.96;62.83
7337;BME280;54510;42.016;23.098;2022-09-17T16:34:04;-21852.53;;;26.31;61.59
7337;BME280;54510;42.016;23.098;2022-09-17T16:36:29;-21842.06;;;25.92;63.01
7337;BME280;54510;42.016;23.098;2022-09-17T16:38:56;-21846.69;;;26.10;63.44